Time;durP1;ratioP1;P1;durP2;ratioP2;P2;SDS_P1;SDS_P2;PMS_P1;PMS_P2;Temp;Humidity;BMP_temperature;BMP_pressure;BME280_temperature;BME280_humidity;BME280_pressure;Samples;Min_cycle;Max_cycle;Signal;HPM_P1;HPM_P2
2022/05/03 00:00:23;;;;;;;8.50;3.80;;;;;;;;;;5000627;28;20030;-79
2022/05/03 00:03:08;;;;;;;6.65;4.40;;;;;;;;;;4991548;28;20018;-79
2022/05/03 00:05:53;;;;;;;7.47;3.67;;;;;;;;;;4992443;28;20505;-81
2022/05/03 00:08:39;;;;;;;9.30;4.75;;;;;;;;;;4991849;28;20026;-80
2022/05/03 00:11:05;;;;;;;5.10;3.55;;;;;;;;;;4992120;28;20488;-83
2022/05/03 00:13:36;;;;;;;7.55;3.92;;;;;;;;;;4999629;28;20034;-80
2022/05/03 00:16:03;;;;;;;5.88;3.55;;;;;;;;;;5010877;28;20415;-80
2022/05/03 00:18:29;;;;;;;4.82;3.50;;;;;;;;;;5010723;28;20034;-81
2022/05/03 00:20:56;;;;;;;12.10;4.45;;;;;;;;;;5010760;28;20022;-80
2022/05/03 00:23:22;;;;;;;7.72;3.80;;;;;;;;;;5009799;28;20033;-80
2022/05/03 00:25:51;;;;;;;11.98;4.32;;;;;;;;;;5011694;28;20077;-80
2022/05/03 00:28:17;;;;;;;7.40;3.88;;;;;;;;;;5011239;28;20075;-79
2022/05/03 00:30:43;;;;;;;5.75;3.35;;;;;;;;;;5011279;28;20022;-81
2022/05/03 00:33:10;;;;;;;6.30;3.33;;;;;;;;;;5011317;28;20022;-81
2022/05/03 00:35:36;;;;;;;5.20;3.55;;;;;;;;;;5010869;28;20029;-80
2022/05/03 00:38:02;;;;;;;7.32;4.00;;;;;;;;;;5008691;28;20074;-81
2022/05/03 00:40:29;;;;;;;9.57;3.90;;;;;;;;;;5010922;28;20026;-80
2022/05/03 00:43:15;;;;;;;5.03;3.60;;;;;;;;;;5010972;28;20025;-81
2022/05/03 00:46:10;;;;;;;8.80;3.65;;;;;;;;;;5010613;28;20033;-80
2022/05/03 00:48:55;;;;;;;6.72;4.10;;;;;;;;;;4994169;28;20048;-81
2022/05/03 00:51:40;;;;;;;7.03;3.05;;;;;;;;;;5012054;28;20037;-80
2022/05/03 00:54:25;;;;;;;3.90;2.63;;;;;;;;;;5008375;28;20030;-80
2022/05/03 00:56:57;;;;;;;5.35;3.58;;;;;;;;;;5009248;28;20457;-82
2022/05/03 00:59:26;;;;;;;5.15;3.70;;;;;;;;;;5011158;28;20102;-83
2022/05/03 01:01:52;;;;;;;8.27;3.50;;;;;;;;;;5012354;28;20034;-80
2022/05/03 01:04:28;;;;;;;5.65;3.42;;;;;;;;;;5011673;28;20050;-81
2022/05/03 01:06:56;;;;;;;7.35;4.18;;;;;;;;;;5007521;28;20057;-80
2022/05/03 01:09:34;;;;;;;8.00;3.80;;;;;;;;;;5013571;28;20381;-82
2022/05/03 01:12:10;;;;;;;9.65;4.70;;;;;;;;;;5008823;28;20030;-81
2022/05/03 01:14:51;;;;;;;8.98;3.90;;;;;;;;;;5013590;28;20033;-78
2022/05/03 01:17:23;;;;;;;7.05;4.18;;;;;;;;;;5018182;28;20018;-77
2022/05/03 01:20:06;;;;;;;7.53;4.40;;;;;;;;;;5006290;28;20049;-78
2022/05/03 01:22:51;;;;;;;8.68;4.88;;;;;;;;;;5006721;28;20034;-78
2022/05/03 01:25:33;;;;;;;8.05;4.22;;;;;;;;;;5012492;28;20029;-79
2022/05/03 01:28:14;;;;;;;6.68;3.70;;;;;;;;;;4997152;28;20030;-79
2022/05/03 01:30:45;;;;;;;6.57;3.80;;;;;;;;;;4998114;28;20074;-79
2022/05/03 01:33:17;;;;;;;5.05;2.95;;;;;;;;;;4997806;28;20386;-78
2022/05/03 01:35:45;;;;;;;6.85;4.00;;;;;;;;;;4998039;28;20018;-78
2022/05/03 01:38:30;;;;;;;6.95;3.90;;;;;;;;;;4998599;28;20041;-78
2022/05/03 01:41:16;;;;;;;7.32;4.53;;;;;;;;;;4994244;28;20041;-78
2022/05/03 01:44:11;;;;;;;6.97;4.20;;;;;;;;;;5011890;28;20549;-78
2022/05/03 01:46:38;;;;;;;6.88;3.85;;;;;;;;;;5009132;28;20041;-78
2022/05/03 01:52:06;;;;;;;6.32;4.43;;;;;;;;;;5014185;28;20063;-79
2022/05/03 01:54:35;;;;;;;6.30;3.75;;;;;;;;;;5014187;28;20022;-78
2022/05/03 01:57:09;;;;;;;6.05;3.75;;;;;;;;;;5014285;28;20053;-79
2022/05/03 01:59:41;;;;;;;5.13;2.97;;;;;;;;;;5014025;28;20037;-79
2022/05/03 02:02:11;;;;;;;7.82;4.15;;;;;;;;;;5014163;28;20029;-79
2022/05/03 02:04:56;;;;;;;5.57;3.80;;;;;;;;;;5014669;28;20018;-78
2022/05/03 02:07:41;;;;;;;6.20;3.75;;;;;;;;;;5013842;28;20068;-80
2022/05/03 02:10:13;;;;;;;6.03;4.18;;;;;;;;;;4996803;28;20025;-79
2022/05/03 02:12:43;;;;;;;10.05;4.80;;;;;;;;;;5014206;28;20105;-78
2022/05/03 02:15:11;;;;;;;7.78;3.58;;;;;;;;;;5013964;28;20124;-78
2022/05/03 02:17:46;;;;;;;8.80;3.50;;;;;;;;;;5012573;28;20028;-78
2022/05/03 02:20:31;;;;;;;4.82;3.17;;;;;;;;;;5011871;28;20029;-78
2022/05/03 02:23:17;;;;;;;5.85;3.80;;;;;;;;;;5012315;28;20032;-78
2022/05/03 02:25:51;;;;;;;8.40;3.40;;;;;;;;;;5012711;28;20034;-79
2022/05/03 02:28:18;;;;;;;5.75;3.30;;;;;;;;;;5012582;28;20476;-79
2022/05/03 02:30:47;;;;;;;8.40;4.32;;;;;;;;;;5012628;28;20477;-79
2022/05/03 02:33:31;;;;;;;7.78;3.97;;;;;;;;;;5013715;28;20543;-80
2022/05/03 02:35:58;;;;;;;6.75;3.95;;;;;;;;;;5012644;28;20072;-79
2022/05/03 02:38:50;;;;;;;7.53;4.07;;;;;;;;;;5013728;28;20026;-79
2022/05/03 02:41:19;;;;;;;8.60;4.03;;;;;;;;;;4997129;28;20535;-79
2022/05/03 02:43:47;;;;;;;6.45;3.95;;;;;;;;;;5013770;28;20022;-80
2022/05/03 02:46:30;;;;;;;5.80;3.90;;;;;;;;;;5013734;28;20049;-80
2022/05/03 02:49:02;;;;;;;4.77;3.23;;;;;;;;;;5012210;28;20033;-79
2022/05/03 02:51:48;;;;;;;6.07;4.20;;;;;;;;;;5012359;28;20392;-80
2022/05/03 02:54:34;;;;;;;7.50;3.63;;;;;;;;;;5013038;28;20042;-79
2022/05/03 02:57:19;;;;;;;6.97;3.95;;;;;;;;;;4991701;28;20056;-79
2022/05/03 03:02:53;;;;;;;5.70;3.90;;;;;;;;;;5013138;28;20401;-79
2022/05/03 03:05:23;;;;;;;4.45;3.22;;;;;;;;;;5013184;28;20037;-79
2022/05/03 03:08:08;;;;;;;6.60;4.15;;;;;;;;;;5013594;28;20034;-79
2022/05/03 03:10:42;;;;;;;5.70;3.95;;;;;;;;;;5011871;28;20167;-79
2022/05/03 03:13:15;;;;;;;6.80;4.20;;;;;;;;;;5011736;28;20026;-79
2022/05/03 03:15:41;;;;;;;10.40;4.75;;;;;;;;;;5012843;28;20033;-79
2022/05/03 03:18:13;;;;;;;8.52;4.65;;;;;;;;;;5012813;28;20121;-79
2022/05/03 03:20:44;;;;;;;7.40;4.60;;;;;;;;;;5012942;28;20022;-79
2022/05/03 03:23:14;;;;;;;6.80;4.30;;;;;;;;;;5011739;28;20034;-79
2022/05/03 03:25:42;;;;;;;9.77;4.85;;;;;;;;;;5012724;28;20018;-79
2022/05/03 03:28:09;;;;;;;7.18;4.65;;;;;;;;;;5011378;28;20374;-79
2022/05/03 03:30:35;;;;;;;11.15;3.63;;;;;;;;;;5011421;28;20022;-79
2022/05/03 03:33:02;;;;;;;5.93;3.92;;;;;;;;;;5011532;28;20429;-79
2022/05/03 03:35:32;;;;;;;4.75;3.47;;;;;;;;;;5012611;28;20058;-79
2022/05/03 03:38:01;;;;;;;5.28;3.63;;;;;;;;;;5012528;28;20491;-79
2022/05/03 03:40:27;;;;;;;5.32;3.17;;;;;;;;;;5012593;28;20479;-79
2022/05/03 03:42:54;;;;;;;6.13;4.72;;;;;;;;;;5011291;28;20529;-79
2022/05/03 03:45:21;;;;;;;5.68;4.13;;;;;;;;;;5012505;28;20056;-79
2022/05/03 03:47:48;;;;;;;5.85;3.97;;;;;;;;;;5010990;28;20022;-79
2022/05/03 03:50:14;;;;;;;8.32;4.15;;;;;;;;;;5011272;28;20026;-80
2022/05/03 03:52:44;;;;;;;5.78;3.65;;;;;;;;;;5012483;28;20429;-81
2022/05/03 03:55:11;;;;;;;7.55;4.00;;;;;;;;;;5011136;28;20033;-80
2022/05/03 03:57:38;;;;;;;8.60;4.28;;;;;;;;;;5012543;28;20018;-81
2022/05/03 04:00:05;;;;;;;8.55;4.00;;;;;;;;;;5010764;28;20449;-79
2022/05/03 04:02:32;;;;;;;9.75;4.88;;;;;;;;;;5012276;28;20473;-78
2022/05/03 04:04:58;;;;;;;11.13;3.90;;;;;;;;;;5011928;28;20026;-78
2022/05/03 04:07:24;;;;;;;5.40;3.78;;;;;;;;;;5010793;28;20054;-78
2022/05/03 04:09:50;;;;;;;9.65;5.28;;;;;;;;;;5012613;28;20022;-84
2022/05/03 04:12:20;;;;;;;6.70;4.00;;;;;;;;;;5012232;28;20022;-79
2022/05/03 04:14:46;;;;;;;6.40;3.78;;;;;;;;;;5011277;28;20025;-81
2022/05/03 04:17:12;;;;;;;5.55;3.45;;;;;;;;;;5012340;28;20014;-80
2022/05/03 04:19:39;;;;;;;5.18;3.65;;;;;;;;;;5012331;28;20484;-81
2022/05/03 04:22:22;;;;;;;5.95;4.38;;;;;;;;;;5012484;28;20022;-81
2022/05/03 04:24:48;;;;;;;4.93;3.93;;;;;;;;;;5012494;28;20068;-81
2022/05/03 04:27:15;;;;;;;7.30;4.28;;;;;;;;;;5012813;28;20646;-81
2022/05/03 04:29:41;;;;;;;7.68;4.47;;;;;;;;;;5012592;28;20046;-80
2022/05/03 04:32:08;;;;;;;7.40;4.40;;;;;;;;;;5012760;28;20022;-82
2022/05/03 04:34:34;;;;;;;7.93;4.97;;;;;;;;;;5012769;28;20022;-80
2022/05/03 04:37:00;;;;;;;7.93;4.38;;;;;;;;;;5012368;28;20026;-81
2022/05/03 04:39:26;;;;;;;9.23;4.70;;;;;;;;;;5011057;28;20033;-81
2022/05/03 04:41:52;;;;;;;8.20;4.95;;;;;;;;;;5012462;28;20049;-82
2022/05/03 04:44:18;;;;;;;12.57;7.13;;;;;;;;;;5013740;28;20042;-81
2022/05/03 04:46:44;;;;;;;8.57;4.68;;;;;;;;;;5016183;28;20033;-80
2022/05/03 04:49:10;;;;;;;8.32;4.35;;;;;;;;;;5016318;28;20072;-80
2022/05/03 04:51:36;;;;;;;7.18;4.38;;;;;;;;;;5016007;28;20060;-79
2022/05/03 04:54:02;;;;;;;8.63;4.38;;;;;;;;;;5014949;28;20033;-81
2022/05/03 04:56:28;;;;;;;7.65;4.38;;;;;;;;;;5014899;28;20026;-80
2022/05/03 04:58:58;;;;;;;7.03;4.88;;;;;;;;;;5015299;28;20505;-79
2022/05/03 05:01:24;;;;;;;9.48;4.43;;;;;;;;;;5015265;28;20049;-78
2022/05/03 05:03:50;;;;;;;8.60;4.45;;;;;;;;;;5015355;28;20022;-79
2022/05/03 05:06:17;;;;;;;10.55;4.13;;;;;;;;;;5015102;28;20120;-78
2022/05/03 05:08:43;;;;;;;5.75;4.18;;;;;;;;;;5013813;28;20022;-79
2022/05/03 05:11:10;;;;;;;8.43;4.45;;;;;;;;;;5016924;28;20964;-79
2022/05/03 05:13:37;;;;;;;6.22;3.80;;;;;;;;;;5011813;28;20035;-80
2022/05/03 05:16:03;;;;;;;7.43;4.03;;;;;;;;;;4995486;28;20374;-78
2022/05/03 05:18:29;;;;;;;5.28;4.28;;;;;;;;;;4995274;28;20034;-79
2022/05/03 05:20:56;;;;;;;9.38;3.97;;;;;;;;;;4995532;28;20026;-79
2022/05/03 05:23:22;;;;;;;8.52;4.00;;;;;;;;;;4995600;28;20022;-78
2022/05/03 05:25:49;;;;;;;9.60;5.20;;;;;;;;;;4995972;28;20054;-79
2022/05/03 05:28:16;;;;;;;12.45;9.60;;;;;;;;;;4995981;28;20026;-80
2022/05/03 05:30:43;;;;;;;9.38;4.20;;;;;;;;;;4995785;28;20073;-79
2022/05/03 05:33:09;;;;;;;12.48;7.72;;;;;;;;;;4995085;28;20185;-78
2022/05/03 05:35:35;;;;;;;10.90;6.03;;;;;;;;;;4995291;28;20097;-79
2022/05/03 05:38:01;;;;;;;15.00;8.88;;;;;;;;;;4995092;28;20389;-79
2022/05/03 05:40:28;;;;;;;9.98;6.40;;;;;;;;;;4995351;28;20033;-77
2022/05/03 05:42:54;;;;;;;9.10;6.03;;;;;;;;;;4995265;28;20026;-78
2022/05/03 05:45:20;;;;;;;6.60;4.65;;;;;;;;;;4995304;28;20089;-80
2022/05/03 05:47:46;;;;;;;12.10;5.10;;;;;;;;;;4994966;28;20106;-80
2022/05/03 05:50:12;;;;;;;10.65;5.18;;;;;;;;;;4993893;28;20034;-79
2022/05/03 05:55:23;;;;;;;6.93;4.35;;;;;;;;;;4994009;28;20073;-79
2022/05/03 05:57:49;;;;;;;9.55;4.43;;;;;;;;;;5010259;28;20481;-78
2022/05/03 06:00:16;;;;;;;8.27;5.55;;;;;;;;;;5009769;28;20030;-79
2022/05/03 06:02:42;;;;;;;9.63;4.85;;;;;;;;;;4995087;28;20477;-78
2022/05/03 06:05:08;;;;;;;11.25;6.97;;;;;;;;;;5009933;28;20018;-79
2022/05/03 06:07:34;;;;;;;7.00;5.20;;;;;;;;;;4994227;28;20058;-77
2022/05/03 06:10:00;;;;;;;10.23;6.13;;;;;;;;;;5009185;28;20030;-78
2022/05/03 06:12:26;;;;;;;22.10;14.85;;;;;;;;;;4994424;28;20473;-76
2022/05/03 06:14:53;;;;;;;16.90;9.88;;;;;;;;;;4996337;28;20387;-78
2022/05/03 06:17:19;;;;;;;11.07;7.30;;;;;;;;;;5009770;28;20026;-79
2022/05/03 06:19:45;;;;;;;10.68;6.75;;;;;;;;;;4994420;28;20056;-77
2022/05/03 06:22:11;;;;;;;12.55;5.15;;;;;;;;;;4994411;28;20022;-77
2022/05/03 06:24:38;;;;;;;7.28;5.05;;;;;;;;;;4994248;28;20113;-77
2022/05/03 06:27:04;;;;;;;11.90;5.80;;;;;;;;;;4994057;28;20053;-79
2022/05/03 06:29:33;;;;;;;12.88;7.90;;;;;;;;;;4994032;28;20049;-78
2022/05/03 06:32:00;;;;;;;20.27;8.63;;;;;;;;;;4993879;28;20026;-77
2022/05/03 06:34:27;;;;;;;16.73;7.88;;;;;;;;;;4993652;28;20181;-77
2022/05/03 06:36:53;;;;;;;16.30;9.25;;;;;;;;;;4994017;28;20076;-78
2022/05/03 06:39:19;;;;;;;17.55;7.65;;;;;;;;;;5008994;28;20074;-77
2022/05/03 06:41:45;;;;;;;14.05;7.82;;;;;;;;;;4994142;28;20576;-80
2022/05/03 06:44:13;;;;;;;13.68;7.13;;;;;;;;;;5008991;28;20073;-79
2022/05/03 06:46:39;;;;;;;13.50;7.22;;;;;;;;;;4993732;28;20090;-78
2022/05/03 06:49:05;;;;;;;15.77;8.05;;;;;;;;;;4994051;28;20050;-79
2022/05/03 06:51:32;;;;;;;19.23;7.85;;;;;;;;;;5009096;28;20474;-78
2022/05/03 06:53:58;;;;;;;16.67;8.77;;;;;;;;;;4993825;28;20061;-78
2022/05/03 06:56:24;;;;;;;15.93;9.10;;;;;;;;;;5008985;28;20066;-77
2022/05/03 06:58:50;;;;;;;10.75;7.57;;;;;;;;;;4993940;28;20035;-78
2022/05/03 07:01:16;;;;;;;18.77;9.02;;;;;;;;;;4993981;28;20109;-81
2022/05/03 07:03:43;;;;;;;19.70;8.73;;;;;;;;;;4993665;28;20019;-78
2022/05/03 07:06:09;;;;;;;17.60;9.57;;;;;;;;;;5008571;28;20043;-78
2022/05/03 07:08:36;;;;;;;14.43;7.55;;;;;;;;;;5008662;28;20450;-79
2022/05/03 07:11:02;;;;;;;14.40;8.13;;;;;;;;;;4993490;28;20022;-78
2022/05/03 07:13:28;;;;;;;17.92;8.63;;;;;;;;;;4993714;28;20054;-79
2022/05/03 07:15:55;;;;;;;13.73;9.00;;;;;;;;;;5012065;28;20379;-78
2022/05/03 07:23:51;;;;;;;14.05;9.27;;;;;;;;;;4992918;28;20150;-79
2022/05/03 07:26:17;;;;;;;15.60;8.82;;;;;;;;;;4993238;28;20551;-79
2022/05/03 07:28:44;;;;;;;17.77;8.70;;;;;;;;;;5012892;28;20057;-80
2022/05/03 07:31:10;;;;;;;19.67;9.63;;;;;;;;;;4999924;28;20027;-78
2022/05/03 07:33:36;;;;;;;18.55;8.55;;;;;;;;;;5001009;28;20022;-80
2022/05/03 07:36:03;;;;;;;14.77;8.50;;;;;;;;;;5012570;28;20469;-78
2022/05/03 07:38:29;;;;;;;18.17;8.40;;;;;;;;;;5012691;28;20424;-77
2022/05/03 07:40:56;;;;;;;13.60;7.10;;;;;;;;;;5012117;28;20034;-79
2022/05/03 07:43:23;;;;;;;16.70;6.95;;;;;;;;;;5012266;28;20022;-77
2022/05/03 07:45:49;;;;;;;14.45;7.57;;;;;;;;;;5012809;28;20098;-78
2022/05/03 07:48:15;;;;;;;11.68;6.85;;;;;;;;;;5007842;28;20030;-79
2022/05/03 07:50:41;;;;;;;16.80;9.30;;;;;;;;;;4993269;28;20026;-78
2022/05/03 07:53:07;;;;;;;13.45;8.00;;;;;;;;;;5008112;28;20033;-79
2022/05/03 07:55:33;;;;;;;15.02;7.90;;;;;;;;;;4993042;28;20023;-81
2022/05/03 07:57:59;;;;;;;13.63;6.43;;;;;;;;;;5008566;28;20030;-80
2022/05/03 08:00:26;;;;;;;10.05;7.72;;;;;;;;;;4992714;28;20389;-81
2022/05/03 08:02:52;;;;;;;9.40;7.50;;;;;;;;;;4992162;28;20470;-81
2022/05/03 08:05:18;;;;;;;12.27;9.88;;;;;;;;;;4991802;28;20022;-81
2022/05/03 08:07:44;;;;;;;12.73;7.22;;;;;;;;;;4995161;28;20051;-77
2022/05/03 08:10:11;;;;;;;12.95;7.50;;;;;;;;;;4991989;28;20018;-80
2022/05/03 08:12:37;;;;;;;11.65;7.70;;;;;;;;;;4992141;28;20018;-82
2022/05/03 08:15:04;;;;;;;11.70;7.65;;;;;;;;;;5010373;28;20045;-82
2022/05/03 08:17:31;;;;;;;15.45;8.93;;;;;;;;;;4998080;28;20022;-82
2022/05/03 08:19:57;;;;;;;11.80;8.60;;;;;;;;;;5017036;28;20025;-82
2022/05/03 08:22:25;;;;;;;13.30;8.60;;;;;;;;;;5013492;28;20030;-82
2022/05/03 08:24:51;;;;;;;13.77;7.70;;;;;;;;;;5016796;28;20014;-82
2022/05/03 08:27:17;;;;;;;11.88;7.88;;;;;;;;;;5016910;28;20097;-84
2022/05/03 08:29:43;;;;;;;13.52;8.55;;;;;;;;;;5006762;28;20507;-82
2022/05/03 08:32:09;;;;;;;19.38;9.25;;;;;;;;;;4997136;28;20472;-85
2022/05/03 08:34:35;;;;;;;13.02;7.07;;;;;;;;;;4998469;28;20018;-86
2022/05/03 08:42:31;;;;;;;14.00;8.27;;;;;;;;;;4997368;28;20535;-81
2022/05/03 08:45:00;;;;;;;15.90;7.75;;;;;;;;;;4998873;28;20098;-84
2022/05/03 08:47:28;;;;;;;12.50;7.25;;;;;;;;;;5002264;28;20027;-82
2022/05/03 08:49:54;;;;;;;10.35;8.15;;;;;;;;;;5011939;28;20065;-83
2022/05/03 08:52:21;;;;;;;9.85;7.30;;;;;;;;;;4999535;28;20459;-82
2022/05/03 08:54:47;;;;;;;16.00;7.55;;;;;;;;;;4998643;28;20023;-79
2022/05/03 08:57:14;;;;;;;9.35;7.28;;;;;;;;;;4997734;28;20018;-81
2022/05/03 08:59:43;;;;;;;9.57;7.25;;;;;;;;;;4996088;28;20068;-86
2022/05/03 09:02:10;;;;;;;8.40;6.82;;;;;;;;;;5014309;28;20022;-83
2022/05/03 09:04:36;;;;;;;10.15;8.07;;;;;;;;;;5016609;28;20077;-80
2022/05/03 09:07:19;;;;;;;10.85;8.30;;;;;;;;;;4994683;28;20101;-79
2022/05/03 09:09:45;;;;;;;13.30;7.75;;;;;;;;;;4994623;28;20026;-81
2022/05/03 09:12:24;;;;;;;8.63;6.55;;;;;;;;;;4993968;28;20034;-80
2022/05/03 09:14:51;;;;;;;8.98;7.22;;;;;;;;;;4995292;28;20031;-79
2022/05/03 09:17:33;;;;;;;8.00;6.40;;;;;;;;;;4994288;28;20057;-81
2022/05/03 09:19:59;;;;;;;8.02;5.85;;;;;;;;;;4996547;28;20038;-83
2022/05/03 09:25:13;;;;;;;10.93;5.13;;;;;;;;;;4995574;28;20065;-80
2022/05/03 09:27:39;;;;;;;6.47;5.20;;;;;;;;;;4997319;28;20026;-82
2022/05/03 09:30:06;;;;;;;8.60;5.85;;;;;;;;;;5010597;28;20026;-80
2022/05/03 09:32:47;;;;;;;7.18;5.88;;;;;;;;;;5011641;28;20057;-81
2022/05/03 09:35:33;;;;;;;8.65;5.97;;;;;;;;;;4999477;28;20027;-82
2022/05/03 09:37:59;;;;;;;7.03;6.07;;;;;;;;;;4997873;28;20097;-83
2022/05/03 09:40:26;;;;;;;8.95;6.78;;;;;;;;;;5001991;28;20026;-84
2022/05/03 09:42:56;;;;;;;8.48;6.50;;;;;;;;;;5005526;28;20120;-81
2022/05/03 09:45:26;;;;;;;8.00;6.13;;;;;;;;;;5001314;28;20033;-82
2022/05/03 09:47:54;;;;;;;6.95;5.78;;;;;;;;;;5002103;28;20606;-80
2022/05/03 09:50:29;;;;;;;7.10;5.50;;;;;;;;;;5002506;28;20014;-82
2022/05/03 09:52:55;;;;;;;6.57;5.88;;;;;;;;;;5004531;28;20104;-81
2022/05/03 09:55:29;;;;;;;6.60;4.88;;;;;;;;;;5001077;28;20018;-82
2022/05/03 09:57:57;;;;;;;5.18;4.53;;;;;;;;;;5000747;28;20022;-80
2022/05/03 10:00:23;;;;;;;6.88;4.75;;;;;;;;;;5006368;28;20030;-81
2022/05/03 10:02:49;;;;;;;8.18;4.68;;;;;;;;;;4995339;28;20097;-81
2022/05/03 10:05:16;;;;;;;7.30;5.72;;;;;;;;;;5016576;28;20033;-78
2022/05/03 10:07:43;;;;;;;5.45;4.35;;;;;;;;;;4997619;28;20046;-79
2022/05/03 10:10:10;;;;;;;6.28;4.90;;;;;;;;;;4995779;28;20030;-82
2022/05/03 10:12:36;;;;;;;6.10;3.78;;;;;;;;;;4995896;28;20021;-82
2022/05/03 10:15:03;;;;;;;7.15;4.10;;;;;;;;;;4997221;28;20421;-82
2022/05/03 10:20:46;;;;;;;5.60;3.13;;;;;;;;;;4993655;28;20049;-78
2022/05/03 10:23:23;;;;;;;4.72;3.15;;;;;;;;;;4993580;28;20030;-78
2022/05/03 10:25:49;;;;;;;5.43;3.22;;;;;;;;;;5006801;28;20481;-82
2022/05/03 10:28:15;;;;;;;5.38;3.45;;;;;;;;;;5001294;28;20037;-82
2022/05/03 10:31:01;;;;;;;6.45;3.88;;;;;;;;;;5001148;28;20026;-76
2022/05/03 10:33:28;;;;;;;5.22;3.45;;;;;;;;;;5000594;28;20053;-80
2022/05/03 10:35:55;;;;;;;4.93;3.55;;;;;;;;;;5004662;28;20040;-77
2022/05/03 10:38:38;;;;;;;7.75;4.18;;;;;;;;;;5010480;28;20030;-78
2022/05/03 10:41:05;;;;;;;9.52;4.15;;;;;;;;;;5001086;28;20026;-78
2022/05/03 10:43:47;;;;;;;9.07;4.97;;;;;;;;;;5011834;28;20050;-78
2022/05/03 10:46:14;;;;;;;6.43;4.82;;;;;;;;;;5012922;28;20463;-80
2022/05/03 10:48:44;;;;;;;6.82;5.00;;;;;;;;;;5003972;28;20025;-79
2022/05/03 10:51:12;;;;;;;8.07;4.75;;;;;;;;;;5010329;28;20473;-80
2022/05/03 10:53:40;;;;;;;6.70;3.90;;;;;;;;;;5007342;28;20022;-83
2022/05/03 10:56:06;;;;;;;6.50;4.30;;;;;;;;;;5007806;28;20026;-82
2022/05/03 10:58:33;;;;;;;7.30;4.65;;;;;;;;;;5010409;28;20026;-77
2022/05/03 11:01:10;;;;;;;5.65;3.65;;;;;;;;;;5008161;28;20109;-79
2022/05/03 11:03:37;;;;;;;6.63;3.63;;;;;;;;;;5008412;28;20026;-78
2022/05/03 11:06:18;;;;;;;5.72;4.05;;;;;;;;;;5008353;28;20061;-80
2022/05/03 11:11:53;;;;;;;5.38;3.63;;;;;;;;;;5003843;28;20025;-78
2022/05/03 11:14:19;;;;;;;7.10;3.47;;;;;;;;;;5005221;28;20113;-79
2022/05/03 11:17:11;;;;;;;5.45;4.18;;;;;;;;;;5001517;28;20531;-79
2022/05/03 11:19:52;;;;;;;4.88;3.83;;;;;;;;;;5003631;28;20522;-80
2022/05/03 11:22:29;;;;;;;6.63;3.42;;;;;;;;;;5011115;28;20022;-80
2022/05/03 11:24:57;;;;;;;6.47;3.88;;;;;;;;;;5022580;28;20114;-81
2022/05/03 11:27:23;;;;;;;6.65;3.53;;;;;;;;;;5004791;28;20022;-80
2022/05/03 11:29:57;;;;;;;5.65;3.47;;;;;;;;;;4997220;28;20068;-83
2022/05/03 11:32:30;;;;;;;5.30;3.55;;;;;;;;;;4999113;28;20477;-82
2022/05/03 11:34:56;;;;;;;;;;;;;;;;;;5013184;28;20103;-80
2022/05/03 11:37:22;;;;;;;3.60;2.75;;;;;;;;;;5004690;28;19914;-79
2022/05/03 11:39:51;;;;;;;5.05;3.10;;;;;;;;;;5010670;28;20034;-80
2022/05/03 11:42:18;;;;;;;7.60;2.58;;;;;;;;;;5006151;28;20512;-84
2022/05/03 11:44:44;;;;;;;3.40;2.45;;;;;;;;;;5003922;28;20025;-81
2022/05/03 11:47:11;;;;;;;4.53;2.70;;;;;;;;;;5012206;28;20108;-77
2022/05/03 11:49:37;;;;;;;6.22;3.70;;;;;;;;;;5011576;28;20018;-78
2022/05/03 11:57:35;;;;;;;4.50;2.90;;;;;;;;;;5006281;28;20469;-78
2022/05/03 12:00:04;;;;;;;6.05;3.08;;;;;;;;;;5015624;28;20045;-77
2022/05/03 12:02:34;;;;;;;3.65;2.97;;;;;;;;;;5015424;28;20014;-76
2022/05/03 12:05:07;;;;;;;7.75;3.78;;;;;;;;;;5012824;28;20034;-77
2022/05/03 12:07:42;;;;;;;6.40;3.85;;;;;;;;;;5011522;28;20049;-76
2022/05/03 12:10:16;;;;;;;5.35;3.65;;;;;;;;;;5008301;28;20046;-78
2022/05/03 12:12:45;;;;;;;4.80;3.28;;;;;;;;;;5010996;28;20386;-75
2022/05/03 12:15:24;;;;;;;3.20;2.38;;;;;;;;;;5010103;28;20022;-77
2022/05/03 12:17:56;;;;;;;3.38;2.38;;;;;;;;;;5008440;28;20062;-80
2022/05/03 12:20:23;;;;;;;6.20;2.43;;;;;;;;;;4992456;28;20034;-79
2022/05/03 12:23:08;;;;;;;3.55;2.58;;;;;;;;;;5002756;28;20256;-77
2022/05/03 12:25:34;;;;;;;3.97;2.60;;;;;;;;;;5009920;28;20026;-79
2022/05/03 12:28:07;;;;;;;7.18;2.47;;;;;;;;;;5007304;28;20049;-79
2022/05/03 12:30:34;;;;;;;4.63;2.30;;;;;;;;;;5010594;28;20560;-79
2022/05/03 12:33:08;;;;;;;2.65;1.90;;;;;;;;;;4992984;28;20538;-77
2022/05/03 12:35:35;;;;;;;3.65;2.78;;;;;;;;;;5014330;28;20553;-76
2022/05/03 12:38:09;;;;;;;4.03;2.17;;;;;;;;;;5014884;28;20029;-76
2022/05/03 12:40:42;;;;;;;2.65;2.05;;;;;;;;;;5009316;28;20041;-79
2022/05/03 12:43:18;;;;;;;3.35;1.77;;;;;;;;;;5006656;28;20381;-79
2022/05/03 12:46:06;;;;;;;3.83;1.90;;;;;;;;;;4996601;28;20026;-79
2022/05/03 12:48:33;;;;;;;3.60;1.98;;;;;;;;;;4992406;28;20038;-77
2022/05/03 12:50:59;;;;;;;4.90;1.83;;;;;;;;;;4995497;28;20394;-78
2022/05/03 12:53:30;;;;;;;4.35;1.90;;;;;;;;;;5007018;28;20434;-80
2022/05/03 12:55:56;;;;;;;3.97;2.35;;;;;;;;;;5007852;28;20030;-77
2022/05/03 12:58:24;;;;;;;5.82;2.17;;;;;;;;;;4994886;28;20019;-79
2022/05/03 13:00:51;;;;;;;2.95;2.00;;;;;;;;;;4993422;28;20015;-78
2022/05/03 13:03:18;;;;;;;2.67;1.98;;;;;;;;;;5005249;28;20054;-75
2022/05/03 13:05:44;;;;;;;3.80;1.83;;;;;;;;;;4999940;28;20046;-76
2022/05/03 13:08:10;;;;;;;5.25;1.80;;;;;;;;;;5010350;28;20031;-78
2022/05/03 13:10:38;;;;;;;3.13;1.65;;;;;;;;;;4997348;28;20512;-79
2022/05/03 13:13:04;;;;;;;2.97;1.75;;;;;;;;;;5013506;28;20037;-77
2022/05/03 13:15:31;;;;;;;3.75;1.70;;;;;;;;;;5008876;28;20022;-78
2022/05/03 13:17:57;;;;;;;2.50;1.60;;;;;;;;;;4995164;28;20416;-77
2022/05/03 13:20:24;;;;;;;9.27;2.95;;;;;;;;;;5012016;28;20038;-79
2022/05/03 13:22:50;;;;;;;4.05;2.42;;;;;;;;;;5011499;28;20473;-79
2022/05/03 13:25:16;;;;;;;2.42;1.73;;;;;;;;;;5012335;28;20105;-79
2022/05/03 13:27:42;;;;;;;5.85;1.58;;;;;;;;;;5027916;28;20030;-78
2022/05/03 13:30:08;;;;;;;5.75;2.50;;;;;;;;;;5007675;28;20149;-80
2022/05/03 13:32:34;;;;;;;2.13;1.38;;;;;;;;;;5013801;28;20022;-80
2022/05/03 13:35:00;;;;;;;3.78;2.42;;;;;;;;;;5013424;28;20101;-79
2022/05/03 13:40:29;;;;;;;3.83;2.30;;;;;;;;;;5005885;28;20056;-82
2022/05/03 13:42:57;;;;;;;4.82;2.97;;;;;;;;;;5010191;28;20027;-78
2022/05/03 13:45:23;;;;;;;3.47;2.58;;;;;;;;;;4993848;28;20027;-78
2022/05/03 13:47:49;;;;;;;7.38;4.85;;;;;;;;;;5009575;28;20041;-78
2022/05/03 13:50:16;;;;;;;3.30;2.58;;;;;;;;;;5011132;28;20034;-80
2022/05/03 13:52:42;;;;;;;4.00;3.08;;;;;;;;;;5010331;28;20026;-81
2022/05/03 13:55:08;;;;;;;6.82;3.47;;;;;;;;;;5017705;28;20018;-79
2022/05/03 13:57:35;;;;;;;3.65;2.92;;;;;;;;;;5020202;28;20667;-82
2022/05/03 14:00:04;;;;;;;7.90;2.40;;;;;;;;;;5015187;28;20095;-79
2022/05/03 14:02:30;;;;;;;3.95;2.63;;;;;;;;;;5013694;28;20022;-78
2022/05/03 14:04:56;;;;;;;9.05;6.30;;;;;;;;;;5005110;28;20065;-79
2022/05/03 14:07:22;;;;;;;4.00;2.28;;;;;;;;;;5013062;28;20062;-80
2022/05/03 14:09:48;;;;;;;4.72;4.20;;;;;;;;;;5003173;28;20105;-77
2022/05/03 14:12:14;;;;;;;5.25;4.22;;;;;;;;;;5004256;28;20393;-78
2022/05/03 14:14:40;;;;;;;4.18;2.78;;;;;;;;;;5020369;28;20105;-77
2022/05/03 14:17:06;;;;;;;4.32;2.55;;;;;;;;;;5003058;28;20018;-76
2022/05/03 14:19:32;;;;;;;4.07;2.80;;;;;;;;;;5003857;28;20033;-77
2022/05/03 14:21:59;;;;;;;7.88;5.05;;;;;;;;;;4998594;28;20026;-79
2022/05/03 14:24:25;;;;;;;6.43;3.88;;;;;;;;;;5015638;28;20084;-79
2022/05/03 14:26:51;;;;;;;7.82;6.63;;;;;;;;;;4993689;28;20038;-77
2022/05/03 14:29:17;;;;;;;4.25;2.85;;;;;;;;;;5013427;28;20011;-79
2022/05/03 14:31:44;;;;;;;12.07;10.82;;;;;;;;;;5014127;28;20030;-78
2022/05/03 14:34:10;;;;;;;7.80;5.03;;;;;;;;;;4997936;28;20026;-80
2022/05/03 14:36:36;;;;;;;3.67;2.63;;;;;;;;;;5019425;28;20018;-77
2022/05/03 14:39:03;;;;;;;4.45;3.28;;;;;;;;;;4996169;28;20038;-78
2022/05/03 14:41:30;;;;;;;5.18;2.60;;;;;;;;;;5009830;28;20014;-79
2022/05/03 14:43:56;;;;;;;4.75;3.50;;;;;;;;;;5020586;28;20073;-79
2022/05/03 14:46:22;;;;;;;5.90;2.22;;;;;;;;;;5023384;28;20474;-77
2022/05/03 14:48:49;;;;;;;4.75;2.33;;;;;;;;;;5000424;28;20028;-79
2022/05/03 14:51:15;;;;;;;4.28;2.50;;;;;;;;;;5008737;28;20018;-76
2022/05/03 14:53:41;;;;;;;3.08;2.22;;;;;;;;;;5021784;28;20156;-80
2022/05/03 15:04:22;;;;;;;4.45;3.33;;;;;;;;;;5007985;28;20108;-77
2022/05/03 15:06:48;;;;;;;4.30;3.22;;;;;;;;;;5012302;28;20156;-78
2022/05/03 15:09:14;;;;;;;4.53;2.67;;;;;;;;;;5012735;28;20049;-79
2022/05/03 15:11:40;;;;;;;3.33;2.35;;;;;;;;;;5012630;28;20026;-77
2022/05/03 15:14:06;;;;;;;4.15;1.88;;;;;;;;;;5011328;28;20026;-78
2022/05/03 15:16:33;;;;;;;3.63;2.90;;;;;;;;;;5009108;28;20022;-78
2022/05/03 15:18:59;;;;;;;5.50;3.03;;;;;;;;;;5006574;28;20064;-78
2022/05/03 15:21:25;;;;;;;6.38;3.13;;;;;;;;;;5012440;28;20038;-80
2022/05/03 15:26:36;;;;;;;5.63;2.50;;;;;;;;;;5012582;28;20076;-76
2022/05/03 15:29:02;;;;;;;7.00;3.97;;;;;;;;;;5011334;28;20057;-76
2022/05/03 15:31:28;;;;;;;4.47;3.08;;;;;;;;;;5013258;28;20389;-79
2022/05/03 15:33:55;;;;;;;8.02;5.53;;;;;;;;;;5010576;28;20017;-77
2022/05/03 15:36:25;;;;;;;8.82;5.93;;;;;;;;;;5007631;28;20093;-78
2022/05/03 15:38:52;;;;;;;9.02;4.05;;;;;;;;;;5005173;28;20045;-79
2022/05/03 15:41:18;;;;;;;7.75;4.45;;;;;;;;;;5008790;28;20038;-77